Time;durP1;ratioP1;P1;durP2;ratioP2;P2;SDS_P1;SDS_P2;PMS_P1;PMS_P2;Temp;Humidity;BMP_temperature;BMP_pressure;BME280_temperature;BME280_humidity;BME280_pressure;Samples;Min_cycle;Max_cycle;Signal;HPM_P1;HPM_P2
2021/12/30 00:02:24;;;;;;;66.82;37.15;;;;;;;;;;5014161;28;20033;-63
2021/12/30 00:04:50;;;;;;;74.78;39.28;;;;;;;;;;5014243;28;20539;-64
2021/12/30 00:07:16;;;;;;;70.25;39.78;;;;;;;;;;5014167;28;20069;-64
2021/12/30 00:09:42;;;;;;;72.47;40.75;;;;;;;;;;5013755;28;20357;-64
2021/12/30 00:12:09;;;;;;;71.40;39.90;;;;;;;;;;4996238;28;20054;-63
2021/12/30 00:14:35;;;;;;;61.38;35.38;;;;;;;;;;5014023;28;20110;-64
2021/12/30 00:17:01;;;;;;;71.45;38.38;;;;;;;;;;4996372;28;20125;-65
2021/12/30 00:19:27;;;;;;;65.45;34.53;;;;;;;;;;5013917;28;20026;-63
2021/12/30 00:21:53;;;;;;;65.75;33.97;;;;;;;;;;5013654;28;20022;-63
2021/12/30 00:24:20;;;;;;;62.47;34.95;;;;;;;;;;5013605;28;20018;-63
2021/12/30 00:26:46;;;;;;;62.58;34.10;;;;;;;;;;5013251;28;20055;-63
2021/12/30 00:29:12;;;;;;;60.88;32.35;;;;;;;;;;5013850;28;20024;-64
2021/12/30 00:31:38;;;;;;;64.65;35.28;;;;;;;;;;5013830;28;20385;-64
2021/12/30 00:34:04;;;;;;;64.60;34.72;;;;;;;;;;5013468;28;20028;-63
2021/12/30 00:36:30;;;;;;;57.45;30.83;;;;;;;;;;5013630;28;20048;-63
2021/12/30 00:38:57;;;;;;;56.45;29.95;;;;;;;;;;5013694;28;20022;-63
2021/12/30 00:41:23;;;;;;;58.78;28.52;;;;;;;;;;5013945;28;20489;-63
2021/12/30 00:43:49;;;;;;;52.42;27.70;;;;;;;;;;5013355;28;20022;-62
2021/12/30 00:46:15;;;;;;;45.03;24.75;;;;;;;;;;5012908;28;20030;-63
2021/12/30 00:48:41;;;;;;;42.67;24.13;;;;;;;;;;5011970;28;20061;-63
2021/12/30 00:51:08;;;;;;;49.42;26.15;;;;;;;;;;5012644;28;20026;-62
2021/12/30 00:53:34;;;;;;;51.33;26.85;;;;;;;;;;5012219;28;20431;-62
2021/12/30 00:56:00;;;;;;;45.30;26.50;;;;;;;;;;5013349;28;20034;-62
2021/12/30 00:58:26;;;;;;;55.60;26.60;;;;;;;;;;5013921;28;20381;-63
2021/12/30 01:00:54;;;;;;;45.55;26.25;;;;;;;;;;5013021;28;20025;-62
2021/12/30 01:03:20;;;;;;;47.15;26.30;;;;;;;;;;5013496;28;20026;-63
2021/12/30 01:05:47;;;;;;;47.08;24.98;;;;;;;;;;5013230;28;20026;-64
2021/12/30 01:08:13;;;;;;;51.15;26.77;;;;;;;;;;5013397;28;20041;-63
2021/12/30 01:10:40;;;;;;;44.78;25.80;;;;;;;;;;5013252;28;20426;-63
2021/12/30 01:13:10;;;;;;;52.13;28.75;;;;;;;;;;5013451;28;20052;-64
2021/12/30 01:21:14;;;;;;;59.03;33.38;;;;;;;;;;4994035;28;20362;-63
2021/12/30 01:23:41;;;;;;;73.25;36.28;;;;;;;;;;5017549;28;20045;-63
2021/12/30 01:26:08;;;;;;;67.75;37.58;;;;;;;;;;5017163;28;20034;-63
2021/12/30 01:28:34;;;;;;;61.55;35.05;;;;;;;;;;5017154;28;20120;-64
2021/12/30 01:31:01;;;;;;;61.72;33.15;;;;;;;;;;5016786;28;20026;-62
2021/12/30 01:33:28;;;;;;;60.47;33.65;;;;;;;;;;5016988;28;20025;-63
2021/12/30 01:35:54;;;;;;;67.00;33.65;;;;;;;;;;5016924;28;20457;-63
2021/12/30 01:38:20;;;;;;;59.88;33.25;;;;;;;;;;5017107;28;20046;-63
2021/12/30 01:40:48;;;;;;;64.72;33.70;;;;;;;;;;5016711;28;20436;-63
2021/12/30 01:43:14;;;;;;;65.72;33.60;;;;;;;;;;5016477;28;20029;-63
2021/12/30 01:45:42;;;;;;;63.78;33.50;;;;;;;;;;5017183;28;20037;-64
2021/12/30 01:48:08;;;;;;;56.42;31.15;;;;;;;;;;5016739;28;20033;-64
2021/12/30 01:50:35;;;;;;;58.63;30.95;;;;;;;;;;5016452;28;20423;-63
2021/12/30 01:53:03;;;;;;;63.28;32.83;;;;;;;;;;5016696;28;20100;-64
2021/12/30 01:55:30;;;;;;;43.35;25.90;;;;;;;;;;5016740;28;20038;-63
2021/12/30 01:57:56;;;;;;;43.00;24.13;;;;;;;;;;5016144;28;20380;-62
2021/12/30 02:00:23;;;;;;;38.15;20.60;;;;;;;;;;5016315;28;20030;-63
2021/12/30 02:02:49;;;;;;;36.92;20.40;;;;;;;;;;5016164;28;20028;-64
2021/12/30 02:05:16;;;;;;;37.53;20.13;;;;;;;;;;5015855;28;20029;-63
2021/12/30 02:07:42;;;;;;;33.72;20.63;;;;;;;;;;5016442;28;20040;-63
2021/12/30 02:10:09;;;;;;;32.65;17.85;;;;;;;;;;5016374;28;20461;-63
2021/12/30 02:12:36;;;;;;;32.00;17.52;;;;;;;;;;5016081;28;20392;-63
2021/12/30 02:15:02;;;;;;;32.97;18.52;;;;;;;;;;5016024;28;20036;-63
2021/12/30 02:17:28;;;;;;;29.45;17.73;;;;;;;;;;5015927;28;20018;-62
2021/12/30 02:19:58;;;;;;;27.98;17.15;;;;;;;;;;5015935;28;20399;-63
2021/12/30 02:22:24;;;;;;;30.83;17.75;;;;;;;;;;5016543;28;20018;-64
2021/12/30 02:24:51;;;;;;;33.00;17.90;;;;;;;;;;5015573;28;20025;-62
2021/12/30 02:27:17;;;;;;;36.08;17.65;;;;;;;;;;5015679;28;20053;-62
2021/12/30 02:29:44;;;;;;;32.38;17.35;;;;;;;;;;5015798;28;20084;-63
2021/12/30 02:32:10;;;;;;;25.27;14.10;;;;;;;;;;5015694;28;20024;-62
2021/12/30 02:34:38;;;;;;;31.02;16.02;;;;;;;;;;5014779;28;20025;-62
2021/12/30 02:37:29;;;;;;;30.10;16.73;;;;;;;;;;5012965;28;20068;-62
2021/12/30 02:40:19;;;;;;;28.13;14.80;;;;;;;;;;5010132;28;20116;-62
2021/12/30 02:43:09;;;;;;;24.48;15.15;;;;;;;;;;5010652;28;20076;-62
2021/12/30 02:46:00;;;;;;;23.20;13.02;;;;;;;;;;5010208;28;20068;-64
2021/12/30 02:48:54;;;;;;;18.10;11.20;;;;;;;;;;5010408;28;20497;-63
2021/12/30 02:51:44;;;;;;;18.05;10.35;;;;;;;;;;5010281;28;20067;-64
2021/12/30 02:54:34;;;;;;;17.42;10.40;;;;;;;;;;5009945;28;20051;-61
2021/12/30 02:57:23;;;;;;;14.05;8.98;;;;;;;;;;5010260;28;20140;-63
2021/12/30 03:00:14;;;;;;;16.92;8.68;;;;;;;;;;5009940;28;20070;-63
2021/12/30 03:03:05;;;;;;;15.27;8.70;;;;;;;;;;5010106;28;20141;-62
2021/12/30 03:05:55;;;;;;;17.00;8.53;;;;;;;;;;5010228;28;20412;-62
2021/12/30 03:08:45;;;;;;;16.00;8.30;;;;;;;;;;5010055;28;20081;-63
2021/12/30 03:11:35;;;;;;;16.58;8.52;;;;;;;;;;5009978;28;20061;-61
2021/12/30 03:14:26;;;;;;;17.63;9.20;;;;;;;;;;5009700;28;20586;-61
2021/12/30 03:17:16;;;;;;;13.55;9.02;;;;;;;;;;5009929;28;20054;-62
2021/12/30 03:20:09;;;;;;;15.75;9.90;;;;;;;;;;5009840;28;20050;-62
2021/12/30 03:22:59;;;;;;;17.80;9.73;;;;;;;;;;5009768;28;20069;-64
2021/12/30 03:25:49;;;;;;;20.67;10.98;;;;;;;;;;5009604;28;20053;-62
2021/12/30 03:28:40;;;;;;;19.52;11.18;;;;;;;;;;5009373;28;20058;-62
2021/12/30 03:31:30;;;;;;;20.87;11.20;;;;;;;;;;5009914;28;20061;-64
2021/12/30 03:34:21;;;;;;;18.00;11.33;;;;;;;;;;5009598;28;20061;-62
2021/12/30 03:37:11;;;;;;;19.98;11.13;;;;;;;;;;5009592;28;20062;-64
2021/12/30 03:40:02;;;;;;;20.33;11.27;;;;;;;;;;5009438;28;20111;-62
2021/12/30 03:42:53;;;;;;;23.38;12.98;;;;;;;;;;5009192;28;20065;-64
2021/12/30 03:45:44;;;;;;;21.57;11.73;;;;;;;;;;5009199;28;20072;-63
2021/12/30 03:48:40;;;;;;;20.50;12.93;;;;;;;;;;5008884;28;20053;-61
2021/12/30 03:51:37;;;;;;;23.92;14.30;;;;;;;;;;5009294;28;20058;-63
2021/12/30 03:54:28;;;;;;;23.25;13.30;;;;;;;;;;5008984;28;20137;-63
2021/12/30 03:57:18;;;;;;;23.30;13.93;;;;;;;;;;5008972;28;20407;-63
2021/12/30 04:00:09;;;;;;;22.25;13.45;;;;;;;;;;5008962;28;20515;-62
2021/12/30 04:02:59;;;;;;;24.55;13.23;;;;;;;;;;5008874;28;20060;-63
2021/12/30 04:05:50;;;;;;;24.67;13.57;;;;;;;;;;5008922;28;20050;-64
2021/12/30 04:08:40;;;;;;;21.33;12.93;;;;;;;;;;5008980;28;20075;-63
2021/12/30 04:11:33;;;;;;;22.92;13.48;;;;;;;;;;5008495;28;20060;-64
2021/12/30 04:14:26;;;;;;;24.02;13.13;;;;;;;;;;5008858;28;20049;-64
2021/12/30 04:17:16;;;;;;;22.23;12.85;;;;;;;;;;5008656;28;20053;-64
2021/12/30 04:20:08;;;;;;;18.38;11.40;;;;;;;;;;5008610;28;20073;-63
2021/12/30 04:22:58;;;;;;;17.65;10.73;;;;;;;;;;5008988;28;20536;-62
2021/12/30 04:25:48;;;;;;;17.00;10.55;;;;;;;;;;5008700;28;20053;-63
2021/12/30 04:28:39;;;;;;;15.32;8.90;;;;;;;;;;5008735;28;20515;-63
2021/12/30 04:31:29;;;;;;;15.30;9.07;;;;;;;;;;5008334;28;20104;-63
2021/12/30 04:34:20;;;;;;;17.13;9.80;;;;;;;;;;5008838;28;20550;-62
2021/12/30 04:37:09;;;;;;;17.20;9.55;;;;;;;;;;5008673;28;20555;-63
2021/12/30 04:40:02;;;;;;;17.45;9.52;;;;;;;;;;5008540;28;20068;-62
2021/12/30 04:42:51;;;;;;;15.10;9.02;;;;;;;;;;5008513;28;20420;-62
2021/12/30 04:45:43;;;;;;;13.40;8.10;;;;;;;;;;5008225;28;20097;-63
2021/12/30 04:48:33;;;;;;;18.13;10.43;;;;;;;;;;5008370;28;20152;-63
2021/12/30 04:51:23;;;;;;;18.08;10.25;;;;;;;;;;5008124;28;20054;-63
2021/12/30 04:54:14;;;;;;;26.58;14.50;;;;;;;;;;5008390;28;20066;-63
2021/12/30 04:57:03;;;;;;;22.27;12.30;;;;;;;;;;5009340;28;20052;-63
2021/12/30 04:59:53;;;;;;;18.90;11.23;;;;;;;;;;5012074;28;20048;-63
2021/12/30 05:05:52;;;;;;;26.67;13.60;;;;;;;;;;5012221;28;20531;-63
2021/12/30 05:08:42;;;;;;;17.52;10.73;;;;;;;;;;5012328;28;20096;-63
2021/12/30 05:11:32;;;;;;;19.38;10.57;;;;;;;;;;5012126;28;20072;-63
2021/12/30 05:14:23;;;;;;;18.92;10.18;;;;;;;;;;5011899;28;20539;-64
2021/12/30 05:17:13;;;;;;;26.27;13.05;;;;;;;;;;5012136;28;20065;-62
2021/12/30 05:20:04;;;;;;;28.73;15.57;;;;;;;;;;5011698;28;20066;-64
2021/12/30 05:22:54;;;;;;;29.58;15.90;;;;;;;;;;5011902;28;20050;-62
2021/12/30 05:25:44;;;;;;;34.03;18.48;;;;;;;;;;5011792;28;20065;-63
2021/12/30 07:40:43;;;;;;;21.27;12.57;;;;;;;;;;5028654;28;20096;-63
2021/12/30 07:43:09;;;;;;;23.88;13.35;;;;;;;;;;5036730;28;20077;-61
2021/12/30 07:45:35;;;;;;;28.40;14.50;;;;;;;;;;5034142;28;20048;-62
2021/12/30 07:48:01;;;;;;;25.17;13.88;;;;;;;;;;5033851;28;20037;-62
2021/12/30 07:50:27;;;;;;;26.23;15.07;;;;;;;;;;5034687;28;20037;-63
2021/12/30 07:52:53;;;;;;;25.10;13.60;;;;;;;;;;5034132;28;20100;-61
2021/12/30 07:55:20;;;;;;;27.98;14.50;;;;;;;;;;5033727;28;20021;-63
2021/12/30 07:57:46;;;;;;;26.45;14.57;;;;;;;;;;5034560;28;20419;-61
2021/12/30 08:00:14;;;;;;;27.90;13.68;;;;;;;;;;5034677;28;20044;-63
2021/12/30 08:02:42;;;;;;;25.85;13.85;;;;;;;;;;5034045;28;20029;-63
2021/12/30 08:05:09;;;;;;;23.73;13.85;;;;;;;;;;5033826;28;20361;-64
2021/12/30 08:07:35;;;;;;;28.00;14.90;;;;;;;;;;5034258;28;20468;-62
2021/12/30 08:10:01;;;;;;;26.02;14.77;;;;;;;;;;5033998;28;20112;-62
2021/12/30 08:12:27;;;;;;;31.58;15.75;;;;;;;;;;5034066;28;20021;-63
2021/12/30 08:14:53;;;;;;;27.33;15.02;;;;;;;;;;5033760;28;20027;-62
2021/12/30 08:17:20;;;;;;;24.98;14.93;;;;;;;;;;5033690;28;20475;-63
2021/12/30 08:19:47;;;;;;;28.65;15.50;;;;;;;;;;5033646;28;20025;-63
2021/12/30 08:22:14;;;;;;;27.33;15.02;;;;;;;;;;5033480;28;20029;-64
2021/12/30 08:24:40;;;;;;;28.33;15.02;;;;;;;;;;5033859;28;20026;-63
2021/12/30 08:27:08;;;;;;;24.90;13.93;;;;;;;;;;5033982;28;20459;-63
2021/12/30 08:29:34;;;;;;;31.40;16.67;;;;;;;;;;5033410;28;20080;-63
2021/12/30 08:32:00;;;;;;;40.65;20.67;;;;;;;;;;5033745;28;20025;-63
2021/12/30 08:34:26;;;;;;;26.45;15.13;;;;;;;;;;5034270;28;20478;-64
2021/12/30 08:36:52;;;;;;;30.00;15.00;;;;;;;;;;5033132;28;20052;-64
2021/12/30 08:39:18;;;;;;;33.75;16.60;;;;;;;;;;5033747;28;20021;-63
2021/12/30 08:41:45;;;;;;;29.17;15.70;;;;;;;;;;5033175;28;20407;-63
2021/12/30 08:44:11;;;;;;;29.15;14.57;;;;;;;;;;5033037;28;20037;-65
2021/12/30 08:46:37;;;;;;;25.60;13.45;;;;;;;;;;5033808;28;20039;-64
2021/12/30 08:49:03;;;;;;;26.60;14.77;;;;;;;;;;5033317;28;20034;-63
2021/12/30 08:51:30;;;;;;;30.02;14.80;;;;;;;;;;5033378;28;20032;-67
2021/12/30 08:53:56;;;;;;;31.50;16.50;;;;;;;;;;5033243;28;20076;-63
2021/12/30 08:56:23;;;;;;;26.60;14.40;;;;;;;;;;5034034;28;20029;-62
2021/12/30 08:58:49;;;;;;;28.85;16.10;;;;;;;;;;5033093;28;20030;-63
2021/12/30 09:01:15;;;;;;;24.58;14.48;;;;;;;;;;5033412;28;20024;-62
2021/12/30 09:03:41;;;;;;;29.17;16.05;;;;;;;;;;5033013;28;20387;-65
2021/12/30 09:06:08;;;;;;;27.67;15.32;;;;;;;;;;5033396;28;20494;-65
2021/12/30 09:08:34;;;;;;;29.58;15.65;;;;;;;;;;5033264;28;20091;-64
2021/12/30 09:11:00;;;;;;;30.90;15.52;;;;;;;;;;5033017;28;20104;-65
2021/12/30 09:13:26;;;;;;;23.88;13.18;;;;;;;;;;5033341;28;20064;-63
2021/12/30 09:15:53;;;;;;;23.50;13.65;;;;;;;;;;5032984;28;20033;-64
2021/12/30 09:18:19;;;;;;;27.45;13.30;;;;;;;;;;5032750;28;20026;-63
2021/12/30 09:20:45;;;;;;;24.95;13.20;;;;;;;;;;5032931;28;20391;-62
2021/12/30 09:23:13;;;;;;;30.00;13.48;;;;;;;;;;5032992;28;20025;-65
2021/12/30 09:25:40;;;;;;;22.23;12.48;;;;;;;;;;5032948;28;20094;-64
2021/12/30 09:28:07;;;;;;;28.08;14.57;;;;;;;;;;5033175;28;20087;-63
2021/12/30 09:30:34;;;;;;;33.78;15.88;;;;;;;;;;5032903;28;20025;-64
2021/12/30 09:33:01;;;;;;;23.92;13.13;;;;;;;;;;5032640;28;20029;-63
2021/12/30 09:35:28;;;;;;;22.25;13.27;;;;;;;;;;5033053;28;20026;-63
2021/12/30 09:37:54;;;;;;;25.98;13.90;;;;;;;;;;5033152;28;20077;-64
2021/12/30 09:40:20;;;;;;;22.67;12.60;;;;;;;;;;5032548;28;20026;-65
2021/12/30 09:42:50;;;;;;;17.85;10.32;;;;;;;;;;5034446;28;20128;-64
2021/12/30 09:45:16;;;;;;;23.20;12.80;;;;;;;;;;5036706;28;20468;-63
2021/12/30 09:47:53;;;;;;;25.70;13.18;;;;;;;;;;5036381;28;20072;-64
2021/12/30 09:50:20;;;;;;;25.90;14.50;;;;;;;;;;5036488;28;20021;-63
2021/12/30 09:52:47;;;;;;;24.23;12.90;;;;;;;;;;5036330;28;20024;-63
2021/12/30 09:55:13;;;;;;;21.75;12.55;;;;;;;;;;5036921;28;20029;-63
2021/12/30 09:57:40;;;;;;;26.45;12.95;;;;;;;;;;5036901;28;20029;-63
2021/12/30 10:00:08;;;;;;;22.48;11.73;;;;;;;;;;5036152;28;20022;-63
2021/12/30 10:02:34;;;;;;;22.80;13.23;;;;;;;;;;5036704;28;20021;-63
2021/12/30 10:05:05;;;;;;;28.38;13.45;;;;;;;;;;5036715;28;20462;-64
2021/12/30 10:07:31;;;;;;;23.70;12.52;;;;;;;;;;5036429;28;20048;-64
2021/12/30 10:10:02;;;;;;;24.40;12.63;;;;;;;;;;5036375;28;20095;-64
2021/12/30 10:12:39;;;;;;;22.13;11.13;;;;;;;;;;5036329;28;20053;-64
2021/12/30 10:15:06;;;;;;;19.17;10.35;;;;;;;;;;5036178;28;20021;-64
2021/12/30 10:17:32;;;;;;;21.73;11.82;;;;;;;;;;5036751;28;20048;-64
2021/12/30 10:20:15;;;;;;;21.55;10.93;;;;;;;;;;5036243;28;20075;-63
2021/12/30 10:22:42;;;;;;;20.17;11.27;;;;;;;;;;5035680;28;20032;-64
2021/12/30 10:25:27;;;;;;;20.30;11.68;;;;;;;;;;5035820;28;20379;-63
2021/12/30 10:27:53;;;;;;;22.95;12.07;;;;;;;;;;5035942;28;20478;-64
2021/12/30 10:30:29;;;;;;;22.30;11.52;;;;;;;;;;5035985;28;20029;-63
2021/12/30 10:33:10;;;;;;;20.35;12.23;;;;;;;;;;5035706;28;20021;-63
2021/12/30 10:35:36;;;;;;;22.83;11.88;;;;;;;;;;5035616;28;20025;-64
2021/12/30 10:38:08;;;;;;;22.63;11.73;;;;;;;;;;5035896;28;20033;-64
2021/12/30 10:40:34;;;;;;;23.98;12.65;;;;;;;;;;5035680;28;20033;-64
2021/12/30 10:43:32;;;;;;;21.92;12.27;;;;;;;;;;5035338;28;20045;-65
2021/12/30 10:46:12;;;;;;;24.67;13.02;;;;;;;;;;5035492;28;20075;-65
2021/12/30 10:48:46;;;;;;;25.17;14.07;;;;;;;;;;5035853;28;20112;-64
2021/12/30 10:51:14;;;;;;;24.75;13.10;;;;;;;;;;5036188;28;20028;-64
2021/12/30 10:53:40;;;;;;;25.77;13.05;;;;;;;;;;5035075;28;20081;-65
2021/12/30 10:56:38;;;;;;;30.80;13.32;;;;;;;;;;5034895;28;20104;-64
2021/12/30 10:59:13;;;;;;;33.10;15.50;;;;;;;;;;4991378;28;20042;-64
2021/12/30 11:01:41;;;;;;;24.23;12.60;;;;;;;;;;5035658;28;20518;-65
2021/12/30 11:04:07;;;;;;;21.25;11.02;;;;;;;;;;5034038;28;20489;-63
2021/12/30 11:06:33;;;;;;;26.77;13.15;;;;;;;;;;5035174;28;20495;-63
2021/12/30 11:09:15;;;;;;;24.27;12.32;;;;;;;;;;5035157;28;20113;-62
2021/12/30 11:11:43;;;;;;;31.50;14.52;;;;;;;;;;5034901;28;20029;-64
2021/12/30 11:14:14;;;;;;;27.30;15.10;;;;;;;;;;5035146;28;20100;-63
2021/12/30 11:17:00;;;;;;;30.73;15.15;;;;;;;;;;5034746;28;20048;-64
2021/12/30 11:19:28;;;;;;;24.13;14.00;;;;;;;;;;5034740;28;20095;-63
2021/12/30 11:21:57;;;;;;;24.17;12.65;;;;;;;;;;5034717;28;20537;-62
2021/12/30 11:24:24;;;;;;;27.90;14.40;;;;;;;;;;5034555;28;20033;-64
2021/12/30 11:26:51;;;;;;;22.90;11.45;;;;;;;;;;5034556;28;20025;-65
2021/12/30 11:29:17;;;;;;;23.60;11.98;;;;;;;;;;5034574;28;20511;-65
2021/12/30 11:31:44;;;;;;;25.30;12.18;;;;;;;;;;5034869;28;20128;-64
2021/12/30 11:34:11;;;;;;;24.75;12.57;;;;;;;;;;5034721;28;20099;-65
2021/12/30 11:36:37;;;;;;;28.83;13.27;;;;;;;;;;5034335;28;20468;-63
2021/12/30 11:39:05;;;;;;;25.33;13.75;;;;;;;;;;5033530;28;20382;-63
2021/12/30 11:41:32;;;;;;;25.23;13.35;;;;;;;;;;5034430;28;20120;-62
2021/12/30 11:43:58;;;;;;;22.52;13.00;;;;;;;;;;5034526;28;20045;-65
2021/12/30 11:46:44;;;;;;;27.65;12.35;;;;;;;;;;5033873;28;20032;-64
2021/12/30 11:49:12;;;;;;;25.20;13.38;;;;;;;;;;5034361;28;20029;-64
2021/12/30 11:51:49;;;;;;;19.70;11.10;;;;;;;;;;5033823;28;20383;-64
2021/12/30 11:54:34;;;;;;;22.92;12.02;;;;;;;;;;5034323;28;20051;-64
2021/12/30 11:57:18;;;;;;;21.05;10.45;;;;;;;;;;5034048;28;20104;-64
2021/12/30 11:59:44;;;;;;;21.50;12.27;;;;;;;;;;5034193;28;20037;-63
2021/12/30 12:02:26;;;;;;;24.25;11.02;;;;;;;;;;5034435;28;20021;-64
2021/12/30 12:04:53;;;;;;;22.25;12.10;;;;;;;;;;5033791;28;20083;-64
2021/12/30 12:07:19;;;;;;;24.40;13.13;;;;;;;;;;5033557;28;20103;-64
2021/12/30 12:09:45;;;;;;;26.50;13.60;;;;;;;;;;5034186;28;20021;-64
2021/12/30 12:12:13;;;;;;;25.98;12.55;;;;;;;;;;5034091;28;20455;-63
2021/12/30 12:14:46;;;;;;;23.17;12.75;;;;;;;;;;5033615;28;20021;-64
2021/12/30 12:17:18;;;;;;;26.23;13.90;;;;;;;;;;5033855;28;20548;-64
2021/12/30 12:19:44;;;;;;;22.00;12.75;;;;;;;;;;5033930;28;20038;-65
2021/12/30 12:22:30;;;;;;;25.30;11.80;;;;;;;;;;5016555;28;20349;-64
2021/12/30 12:25:09;;;;;;;26.83;11.63;;;;;;;;;;5033664;28;20483;-65
2021/12/30 12:27:36;;;;;;;23.52;11.00;;;;;;;;;;5033583;28;20029;-64
2021/12/30 12:30:04;;;;;;;22.80;12.50;;;;;;;;;;5034338;28;20044;-65
2021/12/30 12:32:30;;;;;;;24.90;12.60;;;;;;;;;;5033780;28;20018;-63
2021/12/30 12:34:58;;;;;;;27.85;12.38;;;;;;;;;;5033421;28;20468;-66
2021/12/30 12:37:32;;;;;;;18.33;10.27;;;;;;;;;;5033668;28;20041;-63
2021/12/30 12:40:06;;;;;;;20.27;10.85;;;;;;;;;;5033673;28;20017;-63
2021/12/30 12:42:52;;;;;;;22.13;11.10;;;;;;;;;;5033768;28;20059;-64
2021/12/30 12:45:27;;;;;;;16.67;9.80;;;;;;;;;;5033322;28;20029;-65
2021/12/30 12:48:12;;;;;;;23.05;11.48;;;;;;;;;;5033138;28;20136;-64
2021/12/30 12:50:39;;;;;;;18.00;10.35;;;;;;;;;;5033280;28;20079;-64
2021/12/30 12:53:19;;;;;;;20.20;10.15;;;;;;;;;;5032853;28;20079;-64
2021/12/30 12:55:46;;;;;;;19.40;10.15;;;;;;;;;;5033442;28;20075;-65
2021/12/30 12:58:12;;;;;;;23.30;11.10;;;;;;;;;;5033392;28;20033;-64
2021/12/30 13:00:39;;;;;;;15.40;9.20;;;;;;;;;;5033460;28;20356;-64
2021/12/30 13:03:06;;;;;;;16.67;9.75;;;;;;;;;;5033026;28;20159;-64
2021/12/30 13:05:32;;;;;;;17.35;9.70;;;;;;;;;;5033014;28;20036;-64
2021/12/30 13:07:58;;;;;;;18.23;10.63;;;;;;;;;;5032728;28;20037;-65
2021/12/30 13:10:24;;;;;;;23.27;12.75;;;;;;;;;;5032990;28;20353;-63
2021/12/30 13:12:51;;;;;;;24.67;11.27;;;;;;;;;;5033569;28;20028;-64
2021/12/30 13:15:17;;;;;;;23.88;12.88;;;;;;;;;;5032971;28;20427;-64
2021/12/30 13:17:44;;;;;;;19.63;9.98;;;;;;;;;;5034059;28;20057;-65
2021/12/30 13:20:11;;;;;;;18.13;10.55;;;;;;;;;;5037231;28;20029;-63
2021/12/30 13:22:38;;;;;;;19.27;10.85;;;;;;;;;;5036874;28;20143;-64
2021/12/30 13:25:04;;;;;;;22.80;12.27;;;;;;;;;;5037145;28;20021;-64
2021/12/30 13:27:31;;;;;;;23.55;13.07;;;;;;;;;;5037265;28;20384;-64
2021/12/30 13:30:02;;;;;;;21.42;12.30;;;;;;;;;;5036632;28;20033;-63
2021/12/30 13:32:29;;;;;;;23.77;12.85;;;;;;;;;;5036653;28;20030;-63
2021/12/30 13:35:05;;;;;;;21.88;11.90;;;;;;;;;;5037084;28;20071;-63
2021/12/30 13:37:51;;;;;;;25.23;13.55;;;;;;;;;;5036970;28;20064;-65
2021/12/30 13:40:20;;;;;;;28.42;14.55;;;;;;;;;;5037159;28;20038;-65
2021/12/30 13:42:47;;;;;;;26.02;14.60;;;;;;;;;;5036817;28;20474;-63
2021/12/30 13:45:14;;;;;;;25.30;11.80;;;;;;;;;;5036694;28;20018;-63
2021/12/30 13:47:40;;;;;;;21.80;12.25;;;;;;;;;;5036555;28;20030;-64
2021/12/30 13:50:10;;;;;;;27.15;12.82;;;;;;;;;;5036578;28;20021;-66
2021/12/30 13:52:38;;;;;;;21.23;12.18;;;;;;;;;;5036726;28;20053;-63
2021/12/30 13:55:08;;;;;;;21.63;12.70;;;;;;;;;;5036710;28;20060;-64
2021/12/30 13:57:35;;;;;;;29.77;12.52;;;;;;;;;;5036908;28;20513;-64
2021/12/30 14:00:01;;;;;;;22.90;11.50;;;;;;;;;;5036498;28;20022;-63
2021/12/30 14:02:27;;;;;;;25.85;13.00;;;;;;;;;;5036468;28;20025;-63
2021/12/30 14:05:03;;;;;;;29.92;14.27;;;;;;;;;;5036254;28;20032;-64
2021/12/30 14:07:33;;;;;;;28.92;14.20;;;;;;;;;;5036742;28;20033;-63
2021/12/30 14:09:59;;;;;;;27.98;14.93;;;;;;;;;;5036777;28;20022;-63
2021/12/30 14:12:25;;;;;;;26.38;14.60;;;;;;;;;;5035729;28;20028;-65
2021/12/30 14:14:51;;;;;;;34.00;15.82;;;;;;;;;;5036129;28;20024;-65
2021/12/30 14:17:18;;;;;;;27.13;13.65;;;;;;;;;;5035906;28;20074;-64
2021/12/30 14:19:50;;;;;;;26.10;14.02;;;;;;;;;;5035872;28;20373;-65
2021/12/30 14:22:16;;;;;;;25.90;13.98;;;;;;;;;;5035375;28;20030;-64
2021/12/30 14:24:42;;;;;;;23.63;14.38;;;;;;;;;;5035888;28;20025;-65
2021/12/30 14:27:20;;;;;;;27.52;14.80;;;;;;;;;;5035430;28;20033;-64
2021/12/30 14:29:46;;;;;;;37.00;19.70;;;;;;;;;;5015744;28;20017;-64
2021/12/30 14:32:15;;;;;;;29.88;16.20;;;;;;;;;;5017738;28;20083;-63
2021/12/30 14:34:45;;;;;;;28.13;15.00;;;;;;;;;;5035079;28;20617;-64
2021/12/30 14:37:24;;;;;;;27.40;15.73;;;;;;;;;;5035726;28;20036;-64
2021/12/30 14:39:59;;;;;;;33.28;16.80;;;;;;;;;;5035659;28;20049;-62
2021/12/30 14:42:33;;;;;;;23.90;13.38;;;;;;;;;;5035319;28;20037;-63
2021/12/30 14:45:19;;;;;;;22.88;12.43;;;;;;;;;;5033775;28;20024;-64
2021/12/30 14:47:48;;;;;;;23.45;12.82;;;;;;;;;;5032772;28;20044;-62
2021/12/30 14:50:19;;;;;;;26.70;14.57;;;;;;;;;;5031588;28;20022;-64
2021/12/30 14:52:47;;;;;;;32.72;15.18;;;;;;;;;;5033721;28;20418;-65
2021/12/30 14:55:19;;;;;;;28.17;16.05;;;;;;;;;;5030124;28;20419;-65
2021/12/30 14:57:46;;;;;;;29.15;17.63;;;;;;;;;;5034865;28;20026;-64
2021/12/30 15:00:14;;;;;;;35.05;20.05;;;;;;;;;;5034558;28;20025;-66
2021/12/30 15:02:40;;;;;;;37.17;18.23;;;;;;;;;;5034638;28;20013;-65
2021/12/30 15:05:07;;;;;;;30.88;15.70;;;;;;;;;;5035312;28;20472;-63
2021/12/30 15:07:33;;;;;;;31.25;15.20;;;;;;;;;;5034560;28;20506;-66
2021/12/30 15:10:03;;;;;;;31.42;15.27;;;;;;;;;;5035643;28;20032;-65
2021/12/30 15:12:31;;;;;;;40.95;21.92;;;;;;;;;;5035210;28;20431;-62
2021/12/30 15:14:59;;;;;;;67.15;33.03;;;;;;;;;;5034684;28;20028;-65
2021/12/30 15:17:25;;;;;;;81.07;42.05;;;;;;;;;;5034302;28;20029;-64
2021/12/30 15:19:51;;;;;;;82.88;45.30;;;;;;;;;;5033856;28;20013;-63
2021/12/30 15:22:18;;;;;;;102.40;49.17;;;;;;;;;;5033275;28;20093;-65
2021/12/30 15:24:44;;;;;;;90.45;43.83;;;;;;;;;;5033552;28;20018;-63
2021/12/30 15:27:10;;;;;;;80.35;40.55;;;;;;;;;;5033294;28;20026;-66
2021/12/30 15:29:37;;;;;;;73.38;36.78;;;;;;;;;;5033536;28;20018;-65
2021/12/30 15:32:04;;;;;;;136.32;68.40;;;;;;;;;;5034435;28;20098;-65
2021/12/30 15:34:30;;;;;;;176.20;94.95;;;;;;;;;;5034283;28;20033;-64
2021/12/30 15:36:57;;;;;;;132.15;76.32;;;;;;;;;;5033727;28;20021;-63
2021/12/30 15:39:24;;;;;;;146.90;80.43;;;;;;;;;;5034216;28;20017;-65
2021/12/30 15:41:51;;;;;;;131.77;67.68;;;;;;;;;;5033737;28;20089;-65
2021/12/30 15:44:18;;;;;;;106.07;54.88;;;;;;;;;;5016122;28;20028;-64
2021/12/30 15:46:44;;;;;;;93.00;51.80;;;;;;;;;;5033766;28;20445;-63
2021/12/30 15:49:11;;;;;;;108.40;57.50;;;;;;;;;;5033730;28;20352;-64
2021/12/30 15:51:38;;;;;;;96.43;54.42;;;;;;;;;;5033323;28;20018;-63
2021/12/30 15:54:05;;;;;;;97.85;51.25;;;;;;;;;;5033921;28;20014;-63
2021/12/30 15:56:31;;;;;;;94.05;48.22;;;;;;;;;;5033939;28;20017;-64
2021/12/30 15:58:57;;;;;;;82.95;44.67;;;;;;;;;;5033678;28;20021;-63
2021/12/30 16:01:24;;;;;;;82.53;44.28;;;;;;;;;;5034091;28;20518;-65
2021/12/30 16:03:51;;;;;;;103.30;53.90;;;;;;;;;;5033786;28;20460;-64
2021/12/30 16:06:17;;;;;;;113.18;58.72;;;;;;;;;;5033717;28;20041;-65
2021/12/30 16:08:44;;;;;;;116.40;61.83;;;;;;;;;;5033387;28;20017;-64
2021/12/30 16:11:11;;;;;;;119.47;64.45;;;;;;;;;;5033010;28;20018;-64
2021/12/30 16:13:37;;;;;;;130.48;70.82;;;;;;;;;;5033589;28;20036;-63
2021/12/30 16:16:05;;;;;;;117.47;63.38;;;;;;;;;;5033540;28;20067;-63
2021/12/30 16:18:32;;;;;;;129.85;67.22;;;;;;;;;;5032857;28;20056;-64
2021/12/30 16:20:58;;;;;;;112.53;61.38;;;;;;;;;;5033369;28;20072;-64
2021/12/30 16:23:24;;;;;;;99.15;51.33;;;;;;;;;;5033073;28;20017;-65
2021/12/30 16:25:50;;;;;;;120.38;61.72;;;;;;;;;;5033171;28;20025;-65
2021/12/30 16:28:17;;;;;;;93.05;50.10;;;;;;;;;;5032986;28;20022;-63
2021/12/30 16:30:43;;;;;;;101.70;53.47;;;;;;;;;;5032996;28;20025;-67
2021/12/30 16:33:12;;;;;;;108.97;53.85;;;;;;;;;;5032297;28;20026;-62
2021/12/30 16:35:38;;;;;;;93.45;49.08;;;;;;;;;;5033073;28;20419;-62
2021/12/30 16:38:04;;;;;;;103.05;50.60;;;;;;;;;;5032890;28;20410;-64
2021/12/30 16:40:32;;;;;;;96.68;49.63;;;;;;;;;;5032577;28;20021;-63
2021/12/30 16:42:58;;;;;;;100.38;47.95;;;;;;;;;;5033031;28;20041;-64
2021/12/30 16:45:27;;;;;;;85.25;42.08;;;;;;;;;;5032686;28;20018;-62
2021/12/30 16:47:53;;;;;;;75.78;38.10;;;;;;;;;;5032707;28;20480;-64
2021/12/30 16:50:19;;;;;;;120.63;63.65;;;;;;;;;;5032882;28;20339;-63
2021/12/30 16:52:46;;;;;;;149.82;78.80;;;;;;;;;;5031626;28;20024;-64
2021/12/30 16:55:12;;;;;;;127.82;64.15;;;;;;;;;;5032675;28;20500;-63
2021/12/30 16:57:39;;;;;;;164.48;86.68;;;;;;;;;;5032915;28;20030;-63
2021/12/30 17:00:07;;;;;;;92.00;47.20;;;;;;;;;;5039656;28;20021;-65
2021/12/30 17:02:33;;;;;;;104.68;53.25;;;;;;;;;;5032861;28;20024;-65
2021/12/30 17:05:00;;;;;;;108.63;58.00;;;;;;;;;;5032780;28;20022;-62
2021/12/30 17:07:26;;;;;;;97.40;52.10;;;;;;;;;;5032637;28;20464;-62